Zaandam — PDAN — position and weather

sailwx.info

Track history (hours):
 
Tides and Currents Weather Stations Pressure Air Temp Water Temp Dewpoint Dewpoint Depression Visibility Wind Speed Wind Dir Waves Ship Positions

Zaandam

Operator: Holland America Line

Last reported at 2015-May-23 06:00 UTC. Time now 2015-May-23 13:27 UTC.
Position N 58°12' W 137°42'.

Type: Ship. MMSI: 246442000.

Wind from 330 at 20 knots

Waves 1.0 meters (3 feet), 4 second period

Barometer 1020.0 mb
Air temperature 8.2 ° C
Visibility: greater than 10.8 NM
Dewpoint 7.0 ° C
Water temperature 6.7 ° C

Date/timePositionNaut miles runAvg speedWind from/ knotsBaromVisibWave heightAir tempDewpointWater temp
2015-May-23 06:00N 58°12' W 137°42'3812.6 330 / 201020.010.8 1.0 8.2 7.0 6.7
2015-May-23 03:00N 58°12' W 136°30'712.2 290 / 31019.0 2.2 0.5 8.2 7.0 6.7
2015-May-23 02:23N 58°18' W 136°21'1214.7
2015-May-23 01:33N 58°23' W 136°00'1312.6
2015-May-23 00:33N 58°36' W 136°03'1514.9
2015-May-22 23:33N 58°46' W 136°22'11 1.7
2015-May-22 17:31N 58°53' W 136°38'1312.8
2015-May-22 16:28N 58°45' W 136°18'1516.3
2015-May-22 15:33N 58°32' W 136°04'1211.7
2015-May-22 14:33N 58°20' W 135°57'1010.3
2015-May-22 13:33N 58°16' W 135°39'1211.6
2015-May-22 12:33N 58°13' W 135°18'15 5.7
2015-May-22 10:00N 58°24' W 135°00'29 1.1 320 / 21016.0 5.4 0.516.0 8.211.0
2015-May-21 07:00N 58°06' W 134°18'   320 / 211016.010.8 0.516.0 8.211.6
2015-May-18 15:31N 51°07' W 128°03'1313.9
2015-May-18 14:33N 50°59' W 127°47'1514.5
2015-May-18 13:33N 50°50' W 127°28'1515.3
2015-May-18 12:34N 50°44' W 127°06'1514.6
2015-May-18 11:34N 50°37' W 126°46'1413.7
2015-May-18 10:32N 50°30' W 126°26'1515.4
2015-May-18 09:32N 50°27' W 126°03'5212.9
2015-May-18 05:31N 49°53' W 125°02'1916.1
2015-May-18 04:19N 49°41' W 124°39'1316.2
2015-May-18 03:32N 49°34' W 124°22'1515.9
2015-May-18 02:34N 49°27' W 124°01'1716.6
2015-May-18 01:33N 49°22' W 123°36'1814.6
2015-May-18 00:17N 49°19' W 123°09'2 0.7
2015-May-17 21:20N 49°17' W 123°07'0 0.0
2015-May-17 20:30N 49°17' W 123°07'0 0.0
2015-May-17 18:32N 49°17' W 123°07'0 0.0
2015-May-17 17:32N 49°17' W 123°07'0 0.0
2015-May-17 16:32N 49°17' W 123°07'0 0.0
2015-May-17 15:32N 49°17' W 123°07'0 0.0
2015-May-17 14:32N 49°17' W 123°07'2 1.8
2015-May-17 13:33N 49°19' W 123°08'10 9.6
2015-May-17 12:33N 49°13' W 123°19'1111.0
2015-May-17 11:33N 49°02' W 123°17'1211.9
2015-May-17 10:33N 48°53' W 123°04'10 9.6
2015-May-17 09:33N 48°44' W 123°07'1010.0
2015-May-17 08:33N 48°35' W 123°12'1111.2
2015-May-17 07:34N 48°23' W 123°14'6 5.9
2015-May-17 06:32N 48°25' W 123°23'0 0.0
2015-May-17 05:32N 48°25' W 123°23'0 0.0
2015-May-17 04:32N 48°25' W 123°23'0 0.0
2015-May-17 03:32N 48°25' W 123°23'0 0.0
2015-May-17 02:32N 48°25' W 123°23'0 0.0
2015-May-17 01:32N 48°25' W 123°23'0 0.0
2015-May-17 00:31N 48°25' W 123°23'0 0.5
2015-May-16 23:34N 48°25' W 123°24'10 9.8
2015-May-16 22:33N 48°15' W 123°27'1414.2
2015-May-16 21:33N 48°13' W 123°48'1515.5
2015-May-16 20:33N 48°18' W 124°10'1615.8
2015-May-16 19:33N 48°25' W 124°32'1514.7
2015-May-16 18:33N 48°28' W 124°54'1413.8
2015-May-16 17:33N 48°18' W 125°07'1515.2
2015-May-16 16:33N 48°03' W 125°14'1614.7
2015-May-16 15:29N 47°48' W 125°19'2415.9
2015-May-16 14:00N 47°24' W 125°18'1818.0 300 / 221016.010.8 1.511.0 8.913.4
2015-May-16 13:00N 47°06' W 125°18'1212.0 310 / 171017.0 5.4 1.511.0 8.913.4
2015-May-16 12:00N 46°54' W 125°18'6 9.5 300 / 221016.010.8 11.0 8.913.4
2015-May-16 11:23N 46°48' W 125°19'1316.2
2015-May-16 10:33N 46°35' W 125°19'1817.9
2015-May-16 09:33N 46°17' W 125°20'1818.2
2015-May-16 08:33N 45°59' W 125°19'1818.3
2015-May-16 07:33N 45°41' W 125°18'1818.0
2015-May-16 06:33N 45°23' W 125°17'3522.2
2015-May-16 05:00N 44°48' W 125°12'38417.1 310 / 201017.010.8 2.011.9 9.113.4
2015-May-15 06:33N 38°27' W 124°05'1918.7
2015-May-15 05:33N 38°10' W 123°56'1817.9
2015-May-15 04:33N 37°53' W 123°47'1817.9
2015-May-15 03:33N 37°36' W 123°39'7418.0
2015-May-14 23:27N 36°32' W 122°53'1617.8
2015-May-14 22:33N 36°19' W 122°42'1817.9
2015-May-14 21:33N 36°04' W 122°30'1817.8
2015-May-14 20:33N 35°48' W 122°21'1818.1
2015-May-14 19:33N 35°32' W 122°10'10919.5
2015-May-14 14:00N 34°00' W 121°00'2120.6 120 / 121012.027.0 0.513.111.816.0
2015-May-14 13:00N 33°42' W 120°48'1615.6 080 / 51013.0 5.4 1.013.111.816.0
2015-May-14 12:00N 33°30' W 120°36'6220.6 080 / 71013.010.8 13.111.816.0
2015-May-14 09:00N 32°48' W 119°42'7415.6 300 / 251019.010.8 1.014.010.016.0
2015-May-14 04:14N 32°22' W 118°19'1218.0
2015-May-14 03:33N 32°24' W 118°05'1425.4
2015-May-14 03:00N 32°24' W 117°48'4 9.6 310 / 171013.010.8 1.014.610.616.8
2015-May-14 02:33N 32°27' W 117°44'1717.3
2015-May-14 01:33N 32°31' W 117°25'1312.7
2015-May-14 00:32N 32°40' W 117°14'4 3.9
2015-May-13 23:33N 32°43' W 117°10'0 0.0
2015-May-13 22:33N 32°43' W 117°10'0 0.0
2015-May-13 21:33N 32°43' W 117°10'0 0.0
2015-May-13 20:33N 32°43' W 117°10'0 0.0
2015-May-13 19:33N 32°43' W 117°10'0 0.0
2015-May-13 18:33N 32°43' W 117°10'0 0.0
2015-May-13 17:33N 32°43' W 117°10'0 0.0
2015-May-13 16:33N 32°43' W 117°10'0 0.0
2015-May-13 15:33N 32°43' W 117°10'0 0.0
2015-May-13 14:33N 32°43' W 117°10'0 0.0
2015-May-13 13:33N 32°43' W 117°10'7 6.7
2015-May-13 12:33N 32°37' W 117°14'1313.2
2015-May-13 11:33N 32°24' W 117°11'1817.3
2015-May-13 10:32N 32°07' W 117°06'1718.0
2015-May-13 09:33N 31°50' W 117°00'1818.1
2015-May-13 08:33N 31°32' W 116°55'1918.5
2015-May-13 07:32N 31°14' W 116°49'2017.6
2015-May-13 06:23N 30°55' W 116°42'  
Track history (hours):
 
Tides and Currents Weather Stations Pressure Air Temp Water Temp Dewpoint Dewpoint Depression Visibility Wind Speed Wind Dir Waves Ship Positions

Zaandam

Operator: Holland America Line

Last reported at 2015-May-23 06:00 UTC. Time now 2015-May-23 13:27 UTC.
Position N 58°12' W 137°42'.

Type: Ship. MMSI: 246442000.

Wind from 330 at 20 knots

Waves 1.0 meters (3 feet), 4 second period

Barometer 1020.0 mb
Air temperature 8.2 ° C
Visibility: greater than 10.8 NM
Dewpoint 7.0 ° C
Water temperature 6.7 ° C

Date/timePositionNaut miles runAvg speedWind from/ knotsBaromVisibWave heightAir tempDewpointWater temp
2015-May-23 06:00N 58°12' W 137°42'3812.6 330 / 201020.010.8 1.0 8.2 7.0 6.7
2015-May-23 03:00N 58°12' W 136°30'712.2 290 / 31019.0 2.2 0.5 8.2 7.0 6.7
2015-May-23 02:23N 58°18' W 136°21'1214.7
2015-May-23 01:33N 58°23' W 136°00'1312.6
2015-May-23 00:33N 58°36' W 136°03'1514.9
2015-May-22 23:33N 58°46' W 136°22'11 1.7
2015-May-22 17:31N 58°53' W 136°38'1312.8
2015-May-22 16:28N 58°45' W 136°18'1516.3
2015-May-22 15:33N 58°32' W 136°04'1211.7
2015-May-22 14:33N 58°20' W 135°57'1010.3
2015-May-22 13:33N 58°16' W 135°39'1211.6
2015-May-22 12:33N 58°13' W 135°18'15 5.7
2015-May-22 10:00N 58°24' W 135°00'29 1.1 320 / 21016.0 5.4 0.516.0 8.211.0
2015-May-21 07:00N 58°06' W 134°18'   320 / 211016.010.8 0.516.0 8.211.6
2015-May-18 15:31N 51°07' W 128°03'1313.9
2015-May-18 14:33N 50°59' W 127°47'1514.5
2015-May-18 13:33N 50°50' W 127°28'1515.3
2015-May-18 12:34N 50°44' W 127°06'1514.6
2015-May-18 11:34N 50°37' W 126°46'1413.7
2015-May-18 10:32N 50°30' W 126°26'1515.4
2015-May-18 09:32N 50°27' W 126°03'5212.9
2015-May-18 05:31N 49°53' W 125°02'1916.1
2015-May-18 04:19N 49°41' W 124°39'1316.2
2015-May-18 03:32N 49°34' W 124°22'1515.9
2015-May-18 02:34N 49°27' W 124°01'1716.6
2015-May-18 01:33N 49°22' W 123°36'1814.6
2015-May-18 00:17N 49°19' W 123°09'2 0.7
2015-May-17 21:20N 49°17' W 123°07'0 0.0
2015-May-17 20:30N 49°17' W 123°07'0 0.0
2015-May-17 18:32N 49°17' W 123°07'0 0.0
2015-May-17 17:32N 49°17' W 123°07'0 0.0
2015-May-17 16:32N 49°17' W 123°07'0 0.0
2015-May-17 15:32N 49°17' W 123°07'0 0.0
2015-May-17 14:32N 49°17' W 123°07'2 1.8
2015-May-17 13:33N 49°19' W 123°08'10 9.6
2015-May-17 12:33N 49°13' W 123°19'1111.0
2015-May-17 11:33N 49°02' W 123°17'1211.9
2015-May-17 10:33N 48°53' W 123°04'10 9.6
2015-May-17 09:33N 48°44' W 123°07'1010.0
2015-May-17 08:33N 48°35' W 123°12'1111.2
2015-May-17 07:34N 48°23' W 123°14'6 5.9
2015-May-17 06:32N 48°25' W 123°23'0 0.0
2015-May-17 05:32N 48°25' W 123°23'0 0.0
2015-May-17 04:32N 48°25' W 123°23'0 0.0
2015-May-17 03:32N 48°25' W 123°23'0 0.0
2015-May-17 02:32N 48°25' W 123°23'0 0.0
2015-May-17 01:32N 48°25' W 123°23'0 0.0
2015-May-17 00:31N 48°25' W 123°23'0 0.5
2015-May-16 23:34N 48°25' W 123°24'10 9.8
2015-May-16 22:33N 48°15' W 123°27'1414.2
2015-May-16 21:33N 48°13' W 123°48'1515.5
2015-May-16 20:33N 48°18' W 124°10'1615.8
2015-May-16 19:33N 48°25' W 124°32'1514.7
2015-May-16 18:33N 48°28' W 124°54'1413.8
2015-May-16 17:33N 48°18' W 125°07'1515.2
2015-May-16 16:33N 48°03' W 125°14'1614.7
2015-May-16 15:29N 47°48' W 125°19'2415.9
2015-May-16 14:00N 47°24' W 125°18'1818.0 300 / 221016.010.8 1.511.0 8.913.4
2015-May-16 13:00N 47°06' W 125°18'1212.0 310 / 171017.0 5.4 1.511.0 8.913.4
2015-May-16 12:00N 46°54' W 125°18'6 9.5 300 / 221016.010.8 11.0 8.913.4
2015-May-16 11:23N 46°48' W 125°19'1316.2
2015-May-16 10:33N 46°35' W 125°19'1817.9
2015-May-16 09:33N 46°17' W 125°20'1818.2
2015-May-16 08:33N 45°59' W 125°19'1818.3
2015-May-16 07:33N 45°41' W 125°18'1818.0
2015-May-16 06:33N 45°23' W 125°17'3522.2
2015-May-16 05:00N 44°48' W 125°12'38417.1 310 / 201017.010.8 2.011.9 9.113.4
2015-May-15 06:33N 38°27' W 124°05'1918.7
2015-May-15 05:33N 38°10' W 123°56'1817.9
2015-May-15 04:33N 37°53' W 123°47'1817.9
2015-May-15 03:33N 37°36' W 123°39'7418.0
2015-May-14 23:27N 36°32' W 122°53'1617.8
2015-May-14 22:33N 36°19' W 122°42'1817.9
2015-May-14 21:33N 36°04' W 122°30'1817.8
2015-May-14 20:33N 35°48' W 122°21'1818.1
2015-May-14 19:33N 35°32' W 122°10'10919.5
2015-May-14 14:00N 34°00' W 121°00'2120.6 120 / 121012.027.0 0.513.111.816.0
2015-May-14 13:00N 33°42' W 120°48'1615.6 080 / 51013.0 5.4 1.013.111.816.0
2015-May-14 12:00N 33°30' W 120°36'6220.6 080 / 71013.010.8 13.111.816.0
2015-May-14 09:00N 32°48' W 119°42'7415.6 300 / 251019.010.8 1.014.010.016.0
2015-May-14 04:14N 32°22' W 118°19'1218.0
2015-May-14 03:33N 32°24' W 118°05'1425.4
2015-May-14 03:00N 32°24' W 117°48'4 9.6 310 / 171013.010.8 1.014.610.616.8
2015-May-14 02:33N 32°27' W 117°44'1717.3
2015-May-14 01:33N 32°31' W 117°25'1312.7
2015-May-14 00:32N 32°40' W 117°14'4 3.9
2015-May-13 23:33N 32°43' W 117°10'0 0.0
2015-May-13 22:33N 32°43' W 117°10'0 0.0
2015-May-13 21:33N 32°43' W 117°10'0 0.0
2015-May-13 20:33N 32°43' W 117°10'0 0.0
2015-May-13 19:33N 32°43' W 117°10'0 0.0
2015-May-13 18:33N 32°43' W 117°10'0 0.0
2015-May-13 17:33N 32°43' W 117°10'0 0.0
2015-May-13 16:33N 32°43' W 117°10'0 0.0
2015-May-13 15:33N 32°43' W 117°10'0 0.0
2015-May-13 14:33N 32°43' W 117°10'0 0.0
2015-May-13 13:33N 32°43' W 117°10'7 6.7
2015-May-13 12:33N 32°37' W 117°14'1313.2
2015-May-13 11:33N 32°24' W 117°11'1817.3
2015-May-13 10:32N 32°07' W 117°06'1718.0
2015-May-13 09:33N 31°50' W 117°00'1818.1
2015-May-13 08:33N 31°32' W 116°55'1918.5
2015-May-13 07:32N 31°14' W 116°49'2017.6
2015-May-13 06:23N 30°55' W 116°42'  

Dump ship's entire track history